createdAt,value
2022-08-26T00:00:50.424Z,97.70
2022-08-26T00:03:19.983Z,97.80
2022-08-26T00:05:50.843Z,98.00
2022-08-26T00:08:21.175Z,98.20
2022-08-26T00:10:51.144Z,98.30
2022-08-26T00:13:19.589Z,98.50
2022-08-26T00:15:47.795Z,98.70
2022-08-26T00:18:21.730Z,98.90
2022-08-26T00:20:51.275Z,99.10
2022-08-26T00:23:19.260Z,99.30
2022-08-26T00:25:48.228Z,99.50
2022-08-26T00:28:18.991Z,99.50
2022-08-26T00:30:51.606Z,99.70
2022-08-26T00:33:21.142Z,99.80
2022-08-26T00:35:49.278Z,99.90
2022-08-26T00:38:22.108Z,99.90
2022-08-26T00:40:55.234Z,99.90
2022-08-26T00:43:26.512Z,99.90
2022-08-26T00:46:02.337Z,99.90
2022-08-26T00:48:33.350Z,99.90
2022-08-26T00:51:04.140Z,99.90
2022-08-26T00:53:37.690Z,99.90
2022-08-26T00:56:15.996Z,99.90
2022-08-26T00:58:47.885Z,99.90
2022-08-26T01:01:17.762Z,99.90
2022-08-26T01:03:47.443Z,99.90
2022-08-26T01:06:16.231Z,99.90
2022-08-26T01:08:45.949Z,99.90
2022-08-26T01:11:14.114Z,99.90
2022-08-26T01:13:42.860Z,99.90
2022-08-26T01:16:16.655Z,99.90
2022-08-26T01:18:46.734Z,99.90
2022-08-26T01:21:22.611Z,99.90
2022-08-26T01:23:57.855Z,99.90
2022-08-26T01:26:30.416Z,99.90
2022-08-26T01:29:02.968Z,99.90
2022-08-26T01:31:37.361Z,99.90
2022-08-26T01:34:12.153Z,99.90
2022-08-26T01:36:41.084Z,99.90
2022-08-26T01:39:11.442Z,99.90
2022-08-26T01:41:43.994Z,99.90
2022-08-26T01:44:24.479Z,99.90
2022-08-26T01:46:54.505Z,99.90
2022-08-26T01:49:31.957Z,99.90
2022-08-26T01:52:06.220Z,99.90
2022-08-26T01:54:34.827Z,99.90
2022-08-26T01:57:05.121Z,99.90
2022-08-26T01:59:33.519Z,99.90
2022-08-26T02:02:01.820Z,99.90
2022-08-26T02:04:34.448Z,99.90
2022-08-26T02:07:05.728Z,99.90
2022-08-26T02:09:33.986Z,99.90
2022-08-26T02:12:11.702Z,99.90
2022-08-26T02:14:43.651Z,99.90
2022-08-26T02:17:12.914Z,99.90
2022-08-26T02:19:46.078Z,99.90
2022-08-26T02:22:18.973Z,99.90
2022-08-26T02:24:49.600Z,99.90
2022-08-26T02:27:19.372Z,99.90
2022-08-26T02:29:52.718Z,99.90
2022-08-26T02:32:20.782Z,99.90
2022-08-26T02:34:50.188Z,99.90
2022-08-26T02:37:18.240Z,99.90
2022-08-26T02:39:48.233Z,99.90
2022-08-26T02:42:16.222Z,99.90
2022-08-26T02:44:44.187Z,99.90
2022-08-26T02:47:14.960Z,99.90
2022-08-26T02:49:44.426Z,99.90
2022-08-26T02:52:16.905Z,99.90
2022-08-26T02:54:45.546Z,99.90
2022-08-26T02:57:13.536Z,99.90
2022-08-26T02:59:41.887Z,99.90
2022-08-26T03:02:11.236Z,99.90
2022-08-26T03:04:40.190Z,99.90
2022-08-26T03:07:08.233Z,99.90
2022-08-26T03:09:38.352Z,99.90
2022-08-26T03:12:08.579Z,99.90
2022-08-26T03:14:36.528Z,99.90
2022-08-26T03:17:04.852Z,99.90
2022-08-26T03:19:34.082Z,99.90
2022-08-26T03:22:03.918Z,99.90
2022-08-26T03:24:32.433Z,99.90
2022-08-26T03:27:01.864Z,99.90
2022-08-26T03:29:51.577Z,99.90
2022-08-26T03:32:21.764Z,99.90
2022-08-26T03:34:49.917Z,99.90
2022-08-26T03:37:17.910Z,99.90
2022-08-26T03:39:46.341Z,99.90
2022-08-26T03:42:15.919Z,99.90
2022-08-26T03:44:44.051Z,99.90
2022-08-26T03:47:12.578Z,99.90
2022-08-26T03:49:41.743Z,99.90
2022-08-26T03:52:10.615Z,99.90
2022-08-26T03:54:38.862Z,99.90
2022-08-26T03:57:06.962Z,99.90
2022-08-26T03:59:36.633Z,99.90
2022-08-26T04:02:08.471Z,99.90
2022-08-26T04:04:40.175Z,99.90
2022-08-26T04:07:08.530Z,99.90
2022-08-26T04:09:37.033Z,99.90
2022-08-26T04:12:06.638Z,99.90
2022-08-26T04:14:37.776Z,99.90
2022-08-26T04:17:07.366Z,99.90
2022-08-26T04:19:35.759Z,99.90
2022-08-26T04:22:03.837Z,99.90
2022-08-26T04:24:32.812Z,99.90
2022-08-26T04:27:03.490Z,99.90
2022-08-26T04:29:31.747Z,99.90
2022-08-26T04:32:02.973Z,99.90
2022-08-26T04:34:32.728Z,99.90
2022-08-26T04:37:01.949Z,99.90
2022-08-26T04:39:30.391Z,99.90
2022-08-26T04:42:00.605Z,99.90
2022-08-26T04:44:31.589Z,99.90
2022-08-26T04:46:59.618Z,99.90
2022-08-26T04:49:29.094Z,99.90
2022-08-26T04:52:04.946Z,99.90
2022-08-26T04:54:32.963Z,99.90
2022-08-26T04:57:01.041Z,99.90
2022-08-26T04:59:29.117Z,99.90
2022-08-26T05:01:59.325Z,99.90
2022-08-26T05:04:28.886Z,99.90
2022-08-26T05:07:02.915Z,99.90
2022-08-26T05:09:31.494Z,99.90
2022-08-26T05:11:59.637Z,99.90
2022-08-26T05:14:27.975Z,99.90
2022-08-26T05:16:55.947Z,99.90
2022-08-26T05:19:24.733Z,99.90
2022-08-26T05:21:57.229Z,99.90
2022-08-26T05:24:25.265Z,99.90
2022-08-26T05:26:53.226Z,99.90
2022-08-26T05:29:21.313Z,99.90
2022-08-26T05:31:51.975Z,99.90
2022-08-26T05:34:20.735Z,99.90
2022-08-26T05:36:49.245Z,99.90
2022-08-26T05:39:18.629Z,99.90
2022-08-26T05:41:46.595Z,99.90
2022-08-26T05:44:18.670Z,99.90
2022-08-26T05:46:47.074Z,99.90
2022-08-26T05:49:16.480Z,99.90
2022-08-26T05:51:46.264Z,99.90
2022-08-26T05:54:21.284Z,99.90
2022-08-26T05:56:52.240Z,99.90
2022-08-26T05:59:24.071Z,99.90
2022-08-26T06:01:52.970Z,99.90
2022-08-26T06:04:21.536Z,99.90
2022-08-26T06:06:49.594Z,99.90
2022-08-26T06:09:18.289Z,99.90
2022-08-26T06:11:46.391Z,99.90
2022-08-26T06:14:17.189Z,99.90
2022-08-26T06:16:46.528Z,99.90
2022-08-26T06:19:16.151Z,99.90
2022-08-26T06:21:54.134Z,99.90
2022-08-26T06:24:40.797Z,99.90
2022-08-26T06:27:13.491Z,99.90
2022-08-26T06:29:42.978Z,99.90
2022-08-26T06:32:11.495Z,99.90
2022-08-26T06:34:39.737Z,99.50
2022-08-26T06:37:08.739Z,99.20
2022-08-26T06:39:40.207Z,98.60
2022-08-26T06:42:10.837Z,98.00
2022-08-26T06:44:40.869Z,97.70
2022-08-26T06:47:10.505Z,97.30
2022-08-26T06:49:38.643Z,96.80
2022-08-26T06:52:07.821Z,96.30
2022-08-26T06:54:37.019Z,96.00
2022-08-26T06:57:07.004Z,95.80
2022-08-26T06:59:35.219Z,95.20
2022-08-26T07:02:03.310Z,94.30
2022-08-26T07:04:34.557Z,93.70
2022-08-26T07:07:03.890Z,93.30
2022-08-26T07:09:33.162Z,92.70
2022-08-26T07:12:01.785Z,92.00
2022-08-26T07:14:31.713Z,91.30
2022-08-26T07:17:01.516Z,91.20
2022-08-26T07:19:30.820Z,91.10
2022-08-26T07:22:03.483Z,90.40
2022-08-26T07:24:32.176Z,89.40
2022-08-26T07:27:01.939Z,86.60
2022-08-26T07:29:31.422Z,82.30
2022-08-26T07:32:00.042Z,76.00
2022-08-26T07:34:28.098Z,68.70
2022-08-26T07:36:56.783Z,63.40
2022-08-26T07:39:27.124Z,60.10
2022-08-26T07:41:55.615Z,56.60
2022-08-26T07:46:53.471Z,54.30
2022-08-26T07:49:23.301Z,54.60
2022-08-26T07:51:52.193Z,56.20
2022-08-26T07:54:20.849Z,56.60
2022-08-26T07:56:56.391Z,56.50
2022-08-26T07:59:25.000Z,56.10
2022-08-26T08:01:53.759Z,55.40
2022-08-26T08:04:26.199Z,54.10
2022-08-26T08:06:55.078Z,53.10
2022-08-26T08:09:24.014Z,50.70
2022-08-26T08:11:53.176Z,49.20
2022-08-26T08:14:22.543Z,48.60
2022-08-26T08:16:51.291Z,47.60
2022-08-26T08:19:24.345Z,48.20
2022-08-26T08:22:05.212Z,47.70
2022-08-26T08:24:45.704Z,46.60
2022-08-26T08:27:22.794Z,45.70
2022-08-26T08:29:54.289Z,46.10
2022-08-26T08:32:23.909Z,45.60
2022-08-26T08:34:51.924Z,44.10
2022-08-26T08:37:19.984Z,43.70
2022-08-26T08:39:49.068Z,44.70
2022-08-26T08:42:37.690Z,45.80
2022-08-26T08:45:11.121Z,47.50
2022-08-26T08:47:42.913Z,49.90
2022-08-26T08:50:20.541Z,52.00
2022-08-26T08:52:53.408Z,52.80
2022-08-26T08:55:21.477Z,53.00
2022-08-26T08:58:02.231Z,52.80
2022-08-26T09:00:44.118Z,51.70
2022-08-26T09:03:25.129Z,51.10
2022-08-26T09:05:55.385Z,50.30
2022-08-26T09:08:28.306Z,48.50
2022-08-26T09:10:59.186Z,47.60
2022-08-26T09:13:27.645Z,48.00
2022-08-26T09:16:03.633Z,48.90
2022-08-26T09:18:45.970Z,49.30
2022-08-26T09:21:16.709Z,49.20
2022-08-26T09:23:49.640Z,49.50
2022-08-26T09:26:21.403Z,49.70
2022-08-26T09:28:57.165Z,50.20
2022-08-26T09:31:28.984Z,51.10
2022-08-26T09:34:08.340Z,50.20
2022-08-26T09:36:41.171Z,50.30
2022-08-26T09:39:31.053Z,50.20
2022-08-26T09:42:09.453Z,49.70
2022-08-26T09:44:55.780Z,49.10
2022-08-26T09:47:30.389Z,48.40
2022-08-26T09:50:09.413Z,47.80
2022-08-26T09:52:38.256Z,47.10
2022-08-26T09:55:14.456Z,45.70
2022-08-26T09:57:49.410Z,45.40
2022-08-26T10:00:32.220Z,44.40
2022-08-26T10:03:04.761Z,43.80
2022-08-26T10:05:39.636Z,43.30
2022-08-26T10:08:21.615Z,42.30
2022-08-26T10:10:52.988Z,41.20
2022-08-26T10:13:26.863Z,41.70
2022-08-26T10:16:04.725Z,42.40
2022-08-26T10:18:39.804Z,41.70
2022-08-26T10:21:12.344Z,42.10
2022-08-26T10:23:45.108Z,41.70
2022-08-26T10:26:17.348Z,41.50
2022-08-26T10:28:53.418Z,42.00
2022-08-26T10:31:28.498Z,42.30
2022-08-26T10:34:00.327Z,42.20
2022-08-26T10:37:10.588Z,41.90
2022-08-26T10:39:44.577Z,42.60
2022-08-26T10:42:20.938Z,44.00
2022-08-26T10:44:53.750Z,45.40
2022-08-26T10:47:33.757Z,45.60
2022-08-26T10:50:04.507Z,45.40
2022-08-26T10:52:46.970Z,45.90
2022-08-26T10:55:23.404Z,46.50
2022-08-26T10:58:00.336Z,47.50
2022-08-26T11:01:10.272Z,48.10
2022-08-26T11:03:44.218Z,48.40
2022-08-26T11:06:25.569Z,49.00
2022-08-26T11:08:56.768Z,48.10
2022-08-26T11:11:47.924Z,48.60
2022-08-26T11:14:41.045Z,48.30
2022-08-26T11:17:51.762Z,48.00
2022-08-26T11:20:34.235Z,48.90
2022-08-26T11:23:36.185Z,48.50
2022-08-26T11:26:37.655Z,49.20
2022-08-26T11:29:12.061Z,49.80
2022-08-26T11:31:55.921Z,50.40
2022-08-26T11:34:52.804Z,51.10
2022-08-26T11:37:27.150Z,51.60
2022-08-26T11:39:56.900Z,52.50
2022-08-26T11:42:35.939Z,53.10
2022-08-26T11:45:14.292Z,54.10
2022-08-26T11:47:42.419Z,55.10
2022-08-26T11:50:15.197Z,55.60
2022-08-26T11:52:53.172Z,56.70
2022-08-26T11:55:23.445Z,57.30
2022-08-26T11:57:56.492Z,57.90
2022-08-26T12:00:28.378Z,58.40
2022-08-26T12:03:03.011Z,58.70
2022-08-26T12:05:36.045Z,59.10
2022-08-26T12:08:10.652Z,59.60
2022-08-26T12:10:40.218Z,59.70
2022-08-26T12:13:18.696Z,59.80
2022-08-26T12:15:55.798Z,59.50
2022-08-26T12:18:29.243Z,59.20
2022-08-26T12:21:12.257Z,58.90
2022-08-26T12:23:44.807Z,57.90
2022-08-26T12:26:22.425Z,57.50
2022-08-26T12:28:55.485Z,56.80
2022-08-26T12:31:31.139Z,56.70
2022-08-26T12:34:01.138Z,56.30
2022-08-26T12:36:32.461Z,56.40
2022-08-26T12:39:08.274Z,55.70
2022-08-26T12:41:48.974Z,55.50
2022-08-26T12:44:36.515Z,55.80
2022-08-26T12:47:08.405Z,56.10
2022-08-26T12:49:38.063Z,55.70
2022-08-26T12:52:29.738Z,55.00
2022-08-26T12:54:59.815Z,54.40
2022-08-26T12:57:31.825Z,54.00
2022-08-26T13:00:29.901Z,54.00
2022-08-26T13:02:58.696Z,53.80
2022-08-26T13:05:32.918Z,53.90
2022-08-26T13:08:13.032Z,53.50
2022-08-26T13:10:44.071Z,53.20
2022-08-26T13:13:12.058Z,53.20
2022-08-26T13:15:41.416Z,52.70
2022-08-26T13:18:09.395Z,51.80
2022-08-26T13:20:44.065Z,51.70
2022-08-26T13:23:12.845Z,51.40
2022-08-26T13:25:41.124Z,51.20
2022-08-26T13:28:09.786Z,50.60
2022-08-26T13:30:37.798Z,50.30
2022-08-26T13:33:08.552Z,50.10
2022-08-26T13:35:40.227Z,50.10
2022-08-26T13:38:14.560Z,49.60
2022-08-26T13:41:02.408Z,49.60
2022-08-26T13:43:31.517Z,49.60
2022-08-26T13:46:00.601Z,49.50
2022-08-26T13:48:30.236Z,49.40
2022-08-26T13:50:58.750Z,49.70
2022-08-26T13:53:26.978Z,48.90
2022-08-26T13:55:55.026Z,47.90
2022-08-26T13:58:23.496Z,47.90
2022-08-26T14:00:53.982Z,48.20
2022-08-26T14:03:22.318Z,48.50
2022-08-26T14:05:51.683Z,48.70
2022-08-26T14:08:20.000Z,48.60
2022-08-26T14:13:21.665Z,50.00
2022-08-26T14:15:50.470Z,51.30
2022-08-26T14:18:21.326Z,52.50
2022-08-26T14:20:53.536Z,53.90
2022-08-26T14:23:22.541Z,55.00
2022-08-26T14:25:50.801Z,55.20
2022-08-26T14:28:18.837Z,55.50
2022-08-26T14:30:53.550Z,56.00
2022-08-26T14:33:25.447Z,55.90
2022-08-26T14:36:15.426Z,55.50
2022-08-26T14:38:43.419Z,56.00
2022-08-26T14:41:11.883Z,56.20
2022-08-26T14:43:44.635Z,56.20
2022-08-26T14:46:14.824Z,56.50
2022-08-26T14:48:43.230Z,55.90
2022-08-26T14:51:13.026Z,55.50
2022-08-26T14:53:59.139Z,55.20
2022-08-26T14:56:27.904Z,55.40
2022-08-26T14:58:55.900Z,55.50
2022-08-26T15:01:26.267Z,55.60
2022-08-26T15:03:56.543Z,55.40
2022-08-26T15:06:26.099Z,55.40
2022-08-26T15:08:55.277Z,55.30
2022-08-26T15:11:23.322Z,55.20
2022-08-26T15:13:51.300Z,54.80
2022-08-26T15:16:19.613Z,54.90
2022-08-26T15:18:48.497Z,54.60
2022-08-26T15:21:16.513Z,54.30
2022-08-26T15:23:47.766Z,54.80
2022-08-26T15:26:16.461Z,54.90
2022-08-26T15:28:44.717Z,55.40
2022-08-26T15:31:12.888Z,55.70
2022-08-26T15:33:41.293Z,56.40
2022-08-26T15:36:10.857Z,57.00
2022-08-26T15:38:42.310Z,57.70
2022-08-26T15:41:12.148Z,58.40
2022-08-26T15:43:40.177Z,59.00
2022-08-26T15:46:12.036Z,59.50
2022-08-26T15:48:40.499Z,60.20
2022-08-26T15:51:09.433Z,61.30
2022-08-26T15:53:37.406Z,61.80
2022-08-26T15:56:05.576Z,62.20
2022-08-26T15:58:34.865Z,63.30
2022-08-26T16:01:04.303Z,64.10
2022-08-26T16:03:32.520Z,64.20
2022-08-26T16:06:00.578Z,64.20
2022-08-26T16:08:28.542Z,63.90
2022-08-26T16:11:04.045Z,64.10
2022-08-26T16:13:39.720Z,64.80
2022-08-26T16:16:10.083Z,63.80
2022-08-26T16:18:38.257Z,64.00
2022-08-26T16:21:13.251Z,63.60
2022-08-26T16:23:44.909Z,63.30
2022-08-26T16:26:15.569Z,63.60
2022-08-26T16:28:44.302Z,63.90
2022-08-26T16:31:13.964Z,64.00
2022-08-26T16:33:42.220Z,63.90
2022-08-26T16:36:10.773Z,64.00
2022-08-26T16:38:39.970Z,64.20
2022-08-26T16:41:08.590Z,64.70
2022-08-26T16:43:36.764Z,65.30
2022-08-26T16:46:07.549Z,65.60
2022-08-26T16:48:36.959Z,65.90
2022-08-26T16:51:05.063Z,66.30
2022-08-26T16:53:33.556Z,66.90
2022-08-26T16:56:01.523Z,67.40
2022-08-26T16:58:29.504Z,67.90
2022-08-26T17:00:57.967Z,68.00
2022-08-26T17:03:25.958Z,68.50
2022-08-26T17:05:55.335Z,69.10
2022-08-26T17:08:28.508Z,69.70
2022-08-26T17:10:57.006Z,70.40
2022-08-26T17:13:35.544Z,70.90
2022-08-26T17:16:05.133Z,71.40
2022-08-26T17:18:33.669Z,72.00
2022-08-26T17:21:05.786Z,72.60
2022-08-26T17:23:33.985Z,73.30
2022-08-26T17:26:02.470Z,73.60
2022-08-26T17:28:30.530Z,74.00
2022-08-26T17:30:59.448Z,75.00
2022-08-26T17:33:28.425Z,75.60
2022-08-26T17:35:56.847Z,76.50
2022-08-26T17:38:27.679Z,77.30
2022-08-26T17:40:56.047Z,78.00
2022-08-26T17:43:24.218Z,79.00
2022-08-26T17:45:52.587Z,80.00
2022-08-26T17:48:20.621Z,81.00
2022-08-26T17:50:49.417Z,82.00
2022-08-26T17:53:19.189Z,83.10
2022-08-26T17:55:49.457Z,84.20
2022-08-26T17:58:18.775Z,85.10
2022-08-26T18:00:48.977Z,85.50
2022-08-26T18:03:17.568Z,86.10
2022-08-26T18:05:48.840Z,86.60
2022-08-26T18:08:16.833Z,87.50
2022-08-26T18:10:46.117Z,88.30
2022-08-26T18:13:15.895Z,88.70
2022-08-26T18:15:46.077Z,89.60
2022-08-26T18:18:15.069Z,90.30
2022-08-26T18:20:44.720Z,90.60
2022-08-26T18:23:13.067Z,90.80
2022-08-26T18:25:41.883Z,91.00
2022-08-26T18:28:10.542Z,91.20
2022-08-26T18:30:42.545Z,91.20
2022-08-26T18:33:11.413Z,91.50
2022-08-26T18:35:40.845Z,91.90
2022-08-26T18:38:11.813Z,91.90
2022-08-26T18:40:40.819Z,91.90
2022-08-26T18:43:08.946Z,92.10
2022-08-26T18:45:37.027Z,92.60
2022-08-26T18:48:07.007Z,92.80
2022-08-26T18:50:38.732Z,93.30
2022-08-26T18:53:07.389Z,93.60
2022-08-26T18:55:35.411Z,93.80
2022-08-26T18:58:03.438Z,94.30
2022-08-26T19:00:32.228Z,94.60
2022-08-26T19:03:00.344Z,95.10
2022-08-26T19:05:30.154Z,95.60
2022-08-26T19:07:58.135Z,96.00
2022-08-26T19:10:26.328Z,96.30
2022-08-26T19:12:56.312Z,96.40
2022-08-26T19:15:26.751Z,96.60
2022-08-26T19:17:56.303Z,96.70
2022-08-26T19:20:24.593Z,96.80
2022-08-26T19:22:53.918Z,97.00
2022-08-26T19:25:21.932Z,97.00
2022-08-26T19:27:50.025Z,96.70
2022-08-26T19:30:18.011Z,96.70
2022-08-26T19:32:46.057Z,97.00
2022-08-26T19:35:14.994Z,97.10
2022-08-26T19:37:43.044Z,97.30
2022-08-26T19:40:13.057Z,97.30
2022-08-26T19:42:41.065Z,97.20
2022-08-26T19:45:15.683Z,97.30
2022-08-26T19:47:53.968Z,97.30
2022-08-26T19:50:22.722Z,97.30
2022-08-26T19:52:50.782Z,97.40
2022-08-26T19:55:22.421Z,97.50
2022-08-26T19:57:52.283Z,97.60
2022-08-26T20:00:24.417Z,97.70
2022-08-26T20:02:53.338Z,98.00
2022-08-26T20:05:24.852Z,97.90
2022-08-26T20:07:53.552Z,98.30
2022-08-26T20:10:24.741Z,98.60
2022-08-26T20:12:53.739Z,98.90
2022-08-26T20:15:23.647Z,99.20
2022-08-26T20:17:52.293Z,99.10
2022-08-26T20:20:37.859Z,99.30
2022-08-26T20:23:05.874Z,99.50
2022-08-26T20:25:35.497Z,99.70
2022-08-26T20:28:03.834Z,99.90
2022-08-26T20:30:32.195Z,99.90
2022-08-26T20:33:00.190Z,99.90
2022-08-26T20:35:28.545Z,99.90
2022-08-26T20:37:56.520Z,99.90
2022-08-26T20:40:24.679Z,99.90
2022-08-26T20:42:54.018Z,99.90
2022-08-26T20:45:22.231Z,99.90
2022-08-26T20:47:50.528Z,99.90
2022-08-26T20:50:18.697Z,99.90
2022-08-26T20:52:47.079Z,99.90
2022-08-26T20:55:15.136Z,99.90
2022-08-26T20:57:43.251Z,99.90
2022-08-26T21:00:16.075Z,99.90
2022-08-26T21:02:46.188Z,99.90
2022-08-26T21:05:14.244Z,99.90
2022-08-26T21:07:42.289Z,99.90
2022-08-26T21:10:11.826Z,99.90
2022-08-26T21:12:40.057Z,99.90
2022-08-26T21:15:09.106Z,99.90
2022-08-26T21:17:38.484Z,99.90
2022-08-26T21:20:07.359Z,99.90
2022-08-26T21:22:35.496Z,99.90
2022-08-26T21:25:03.902Z,99.90
2022-08-26T21:27:31.952Z,99.90
2022-08-26T21:29:59.905Z,99.90
2022-08-26T21:32:27.918Z,99.90
2022-08-26T21:34:59.042Z,99.90
2022-08-26T21:37:29.012Z,99.90
2022-08-26T21:39:58.885Z,99.90
2022-08-26T21:42:27.541Z,99.90
2022-08-26T21:44:55.726Z,99.90
2022-08-26T21:47:24.648Z,99.90
2022-08-26T21:49:53.219Z,99.90
2022-08-26T21:52:22.606Z,99.90
2022-08-26T21:54:50.533Z,99.90
2022-08-26T21:57:19.249Z,99.90
2022-08-26T21:59:47.256Z,99.90
2022-08-26T22:02:15.772Z,99.90
2022-08-26T22:04:48.519Z,99.90
2022-08-26T22:07:19.005Z,99.90
2022-08-26T22:09:49.560Z,99.90
2022-08-26T22:12:18.990Z,99.90
2022-08-26T22:14:47.051Z,99.90
2022-08-26T22:17:15.217Z,99.90
2022-08-26T22:19:45.658Z,99.90
2022-08-26T22:22:14.390Z,99.90
2022-08-26T22:24:43.286Z,99.90
2022-08-26T22:27:13.042Z,99.90
2022-08-26T22:29:41.228Z,99.90
2022-08-26T22:32:09.292Z,99.90
2022-08-26T22:34:37.289Z,99.90
2022-08-26T22:37:05.565Z,99.90
2022-08-26T22:39:33.811Z,99.90
2022-08-26T22:42:02.528Z,99.90
2022-08-26T22:44:32.678Z,99.90
2022-08-26T22:47:01.573Z,99.90
2022-08-26T22:49:29.601Z,99.90
2022-08-26T22:51:58.144Z,99.90
2022-08-26T22:54:26.449Z,99.90
2022-08-26T22:56:54.430Z,99.90
2022-08-26T22:59:22.701Z,99.90
2022-08-26T23:01:51.963Z,99.90
2022-08-26T23:04:20.466Z,99.90
2022-08-26T23:06:48.586Z,99.90
2022-08-26T23:09:18.034Z,99.90
2022-08-26T23:11:46.823Z,99.90
2022-08-26T23:14:14.915Z,99.90
2022-08-26T23:16:43.138Z,99.90
2022-08-26T23:19:14.566Z,99.90
2022-08-26T23:21:43.130Z,99.90
2022-08-26T23:24:12.016Z,99.90
2022-08-26T23:26:41.677Z,99.90
2022-08-26T23:29:12.265Z,99.90
2022-08-26T23:31:42.081Z,99.90
2022-08-26T23:34:29.408Z,99.90
2022-08-26T23:37:00.193Z,99.90
2022-08-26T23:39:29.234Z,99.90
2022-08-26T23:41:58.010Z,99.90
2022-08-26T23:44:26.630Z,99.90
2022-08-26T23:46:54.991Z,99.90
2022-08-26T23:49:23.286Z,99.90
2022-08-26T23:52:09.333Z,99.90
2022-08-26T23:54:39.051Z,99.90
2022-08-26T23:57:07.509Z,99.90
2022-08-26T23:59:35.948Z,99.90
